Terminal Aerodrome Forecast
Issued by NWS

Current Version | Previous Version | Graphics & Text | Print | Product List | Glossary On
Versions: 1 2 3 4 5 6 7 8 9 10 11 12 13 14 15 16 17 18 19 20 21 22 23 24 25 26 27 28 29
000
FTUS41 KILN 240249 AAD
TAFLUK
TAF AMD
KLUK 240249Z 2403/2424 21006KT 5SM BR VCSH SCT006 BKN011 OVC019
     FM240600 32006KT P6SM SCT012 BKN150
     FM240800 VRB03KT 3SM BR SCT200
     FM241400 28008KT P6SM SCT250=

USA.gov is the U.S. government's official web portal to all federal, state and local government web resources and services.